Terminal Aerodrome Forecast
Issued by NWS

Home | Current Version | Previous Version | Text Only | Print | Product List | Glossary On
Versions: 1 2 3 4 5 6 7 8 9 10 11 12 13 14 15 16 17 18
000
FTAK31 PAJN 210534
TAFAWG
TAF
PAWG 210534Z 2106/2206 30008KT P6SM SKC
     FM210800 VRB03KT P6SM BCFG SKC
     FM211100 00000KT 2SM BR BKN002 BKN250
     FM211600 32005KT P6SM FEW002 BKN250
     FM220300 14004KT P6SM VCSH BKN040 BKN080
      AMD LTD TO CLD VIS AND WIND 2106/2115=

USA.gov is the U.S. government's official web portal to all federal, state and local government web resources and services.